createdAt,value
2019-01-17T00:02:28.899Z,19.10
2019-01-17T00:05:19.981Z,19.57
2019-01-17T00:08:11.335Z,17.90
2019-01-17T00:10:55.469Z,18.70
2019-01-17T00:13:43.825Z,18.42
2019-01-17T00:16:35.156Z,20.48
2019-01-17T00:19:25.028Z,15.20
2019-01-17T00:22:16.180Z,18.85
2019-01-17T00:25:02.898Z,15.88
2019-01-17T00:27:51.204Z,13.90
2019-01-17T00:30:38.413Z,17.98
2019-01-17T00:33:29.839Z,16.00
2019-01-17T00:36:16.573Z,15.35
2019-01-17T00:39:05.340Z,14.83
2019-01-17T00:42:05.464Z,14.63
2019-01-17T00:44:54.124Z,14.75
2019-01-17T00:47:51.284Z,15.53
2019-01-17T00:50:42.496Z,14.07
2019-01-17T00:53:45.822Z,12.80
2019-01-17T00:56:32.591Z,12.53
2019-01-17T00:59:19.373Z,12.05
2019-01-17T01:02:06.641Z,15.40
2019-01-17T01:05:12.531Z,14.78
2019-01-17T01:07:59.206Z,11.25
2019-01-17T01:10:50.419Z,13.85
2019-01-17T01:13:47.567Z,12.15
2019-01-17T01:16:39.143Z,13.03
2019-01-17T01:19:30.246Z,11.55
2019-01-17T01:22:26.173Z,12.85
2019-01-17T01:25:17.405Z,10.82
2019-01-17T01:28:04.083Z,12.20
2019-01-17T01:30:58.515Z,12.13
2019-01-17T01:33:49.927Z,9.85
2019-01-17T01:36:41.012Z,9.58
2019-01-17T01:39:27.844Z,8.40
2019-01-17T01:42:14.700Z,8.83
2019-01-17T01:45:03.010Z,8.53
2019-01-17T01:48:03.432Z,9.13
2019-01-17T01:50:54.762Z,7.85
2019-01-17T01:53:24.372Z,6.37
2019-01-17T01:55:53.821Z,6.67
2019-01-17T01:58:23.268Z,9.90
2019-01-17T02:00:53.049Z,6.12
2019-01-17T02:03:22.413Z,6.08
2019-01-17T02:05:53.602Z,7.60
2019-01-17T02:08:23.037Z,6.95
2019-01-17T02:10:52.476Z,4.83
2019-01-17T02:13:22.043Z,5.42
2019-01-17T02:15:51.425Z,8.08
2019-01-17T02:18:20.946Z,6.53
2019-01-17T02:20:50.359Z,10.82
2019-01-17T02:23:20.140Z,5.62
2019-01-17T02:25:49.583Z,6.85
2019-01-17T02:28:18.969Z,8.53
2019-01-17T02:30:48.577Z,11.63
2019-01-17T02:33:18.018Z,7.25
2019-01-17T02:35:47.390Z,6.95
2019-01-17T02:38:16.786Z,7.97
2019-01-17T02:40:46.240Z,6.90
2019-01-17T02:43:15.657Z,9.85
2019-01-17T02:45:45.193Z,8.08
2019-01-17T02:48:14.564Z,7.62
2019-01-17T02:50:45.474Z,10.53
2019-01-17T02:53:14.901Z,6.97
2019-01-17T02:55:44.606Z,6.45
2019-01-17T02:58:14.008Z,8.43
2019-01-17T03:00:43.439Z,7.20
2019-01-17T03:03:12.858Z,9.45
2019-01-17T03:05:42.513Z,7.25
2019-01-17T03:08:11.899Z,7.15
2019-01-17T03:10:41.328Z,9.58
2019-01-17T03:13:12.165Z,8.83
2019-01-17T03:15:41.540Z,12.05
2019-01-17T03:18:10.930Z,8.23
2019-01-17T03:20:40.747Z,8.88
2019-01-17T03:23:10.095Z,10.88
2019-01-17T03:25:39.564Z,10.90
2019-01-17T03:28:12.306Z,9.05
2019-01-17T03:30:41.722Z,13.03
2019-01-17T03:33:11.182Z,14.95
2019-01-17T03:35:45.736Z,10.20
2019-01-17T03:38:15.188Z,12.68
2019-01-17T03:40:44.658Z,11.97
2019-01-17T03:43:14.050Z,7.62
2019-01-17T03:45:43.573Z,10.60
2019-01-17T03:48:13.026Z,11.15
2019-01-17T03:50:42.529Z,8.45
2019-01-17T03:53:12.010Z,9.20
2019-01-17T03:55:41.802Z,11.48
2019-01-17T03:58:11.313Z,14.03
2019-01-17T04:00:43.391Z,10.95
2019-01-17T04:03:16.036Z,7.70
2019-01-17T04:05:45.441Z,6.40
2019-01-17T04:08:14.916Z,10.63
2019-01-17T04:10:44.323Z,9.75
2019-01-17T04:13:14.009Z,10.45
2019-01-17T04:15:43.386Z,8.35
2019-01-17T04:18:12.771Z,7.85
2019-01-17T04:20:42.181Z,9.68
2019-01-17T04:23:11.629Z,8.80
2019-01-17T04:25:41.026Z,8.48
2019-01-17T04:28:10.435Z,10.03
2019-01-17T04:30:39.874Z,6.83
2019-01-17T04:33:12.051Z,7.95
2019-01-17T04:35:41.583Z,7.65
2019-01-17T04:38:11.027Z,10.53
2019-01-17T04:40:40.453Z,12.70
2019-01-17T04:43:09.792Z,8.85
2019-01-17T04:45:39.200Z,11.00
2019-01-17T04:48:08.795Z,9.90
2019-01-17T04:50:38.197Z,10.18
2019-01-17T04:53:07.636Z,8.08
2019-01-17T04:55:37.055Z,13.25
2019-01-17T04:58:06.663Z,7.28
2019-01-17T05:00:36.082Z,9.45
2019-01-17T05:03:05.442Z,9.50
2019-01-17T05:05:34.917Z,10.98
2019-01-17T05:08:10.522Z,10.03
2019-01-17T05:10:40.093Z,8.73
2019-01-17T05:13:09.819Z,6.37
2019-01-17T05:15:39.209Z,9.75
2019-01-17T05:18:08.574Z,9.35
2019-01-17T05:20:37.984Z,9.58
2019-01-17T05:23:07.464Z,8.23
2019-01-17T05:25:36.926Z,10.25
2019-01-17T05:28:06.424Z,11.18
2019-01-17T05:30:38.607Z,13.80
2019-01-17T05:33:08.053Z,10.55
2019-01-17T05:35:37.501Z,10.18
2019-01-17T05:38:09.699Z,8.20
2019-01-17T05:40:39.175Z,8.18
2019-01-17T05:43:08.588Z,8.08
2019-01-17T05:45:38.061Z,9.50
2019-01-17T05:48:07.644Z,10.98
2019-01-17T05:50:37.160Z,10.05
2019-01-17T05:53:06.766Z,8.50
2019-01-17T05:55:38.957Z,9.08
2019-01-17T05:58:08.547Z,9.40
2019-01-17T06:00:37.983Z,10.65
2019-01-17T06:03:07.463Z,9.08
2019-01-17T06:05:36.835Z,6.42
2019-01-17T06:08:06.385Z,8.73
2019-01-17T06:10:35.727Z,9.28
2019-01-17T06:13:08.423Z,8.08
2019-01-17T06:15:38.192Z,10.72
2019-01-17T06:18:07.611Z,8.88
2019-01-17T06:20:36.972Z,9.90
2019-01-17T06:23:06.508Z,18.40
2019-01-17T06:25:35.928Z,10.60
2019-01-17T06:28:05.386Z,11.03
2019-01-17T06:30:34.790Z,11.65
2019-01-17T06:33:04.359Z,10.95
2019-01-17T06:35:33.761Z,10.48
2019-01-17T06:38:04.294Z,8.58
2019-01-17T06:40:33.914Z,8.53
2019-01-17T06:43:12.449Z,6.42
2019-01-17T06:45:41.819Z,8.98
2019-01-17T06:48:11.291Z,7.85
2019-01-17T06:50:40.749Z,6.92
2019-01-17T06:53:10.181Z,9.35
2019-01-17T06:55:39.564Z,6.90
2019-01-17T06:58:08.970Z,9.35
2019-01-17T07:00:39.788Z,5.50
2019-01-17T07:03:09.190Z,6.03
2019-01-17T07:05:38.581Z,6.05
2019-01-17T07:08:09.180Z,7.90
2019-01-17T07:10:38.620Z,4.85
2019-01-17T07:13:08.031Z,6.87
2019-01-17T07:15:37.618Z,5.33
2019-01-17T07:18:07.082Z,4.78
2019-01-17T07:20:36.468Z,4.12
2019-01-17T07:23:05.873Z,5.25
2019-01-17T07:25:40.882Z,4.40
2019-01-17T07:28:06.448Z,3.72
2019-01-17T07:30:41.918Z,4.83
2019-01-17T07:33:11.390Z,3.62
2019-01-17T07:35:40.776Z,4.40
2019-01-17T07:38:13.641Z,8.50
2019-01-17T07:40:42.985Z,5.17
2019-01-17T07:43:12.348Z,4.45
2019-01-17T07:45:42.058Z,5.53
2019-01-17T07:48:14.522Z,5.75
2019-01-17T07:50:43.914Z,5.12
2019-01-17T07:53:13.417Z,5.72
2019-01-17T07:55:47.563Z,4.33
2019-01-17T07:58:14.207Z,4.62
2019-01-17T08:00:43.696Z,4.15
2019-01-17T08:03:13.124Z,4.20
2019-01-17T08:05:42.731Z,6.92
2019-01-17T08:08:14.291Z,3.40
2019-01-17T08:10:43.657Z,4.35
2019-01-17T08:13:13.376Z,3.87
2019-01-17T08:15:42.784Z,4.55
2019-01-17T08:18:18.524Z,8.23
2019-01-17T08:20:43.275Z,6.47
2019-01-17T08:23:13.120Z,5.55
2019-01-17T08:25:42.520Z,4.83
2019-01-17T08:28:11.878Z,5.75
2019-01-17T08:30:41.225Z,4.83
2019-01-17T08:33:10.613Z,4.55
2019-01-17T08:35:40.107Z,4.22
2019-01-17T08:38:09.554Z,7.97
2019-01-17T08:40:38.902Z,6.70
2019-01-17T08:43:11.324Z,4.08
2019-01-17T08:45:40.651Z,6.42
2019-01-17T08:48:10.224Z,5.22
2019-01-17T08:50:39.605Z,3.33
2019-01-17T08:53:08.986Z,5.03
2019-01-17T08:55:38.341Z,7.97
2019-01-17T08:58:07.779Z,6.67
2019-01-17T09:00:37.294Z,5.65
2019-01-17T09:03:06.729Z,4.05
2019-01-17T09:05:36.112Z,5.50
2019-01-17T09:08:05.735Z,4.47
2019-01-17T09:10:35.235Z,7.05
2019-01-17T09:13:04.563Z,4.37
2019-01-17T09:15:35.406Z,8.35
2019-01-17T09:18:07.877Z,4.83
2019-01-17T09:20:37.235Z,7.08
2019-01-17T09:23:07.581Z,6.40
2019-01-17T09:25:39.380Z,5.17
2019-01-17T09:28:08.748Z,5.20
2019-01-17T09:30:39.990Z,4.37
2019-01-17T09:33:20.255Z,6.15
2019-01-17T09:35:49.958Z,5.25
2019-01-17T09:38:19.322Z,3.30
2019-01-17T09:40:48.691Z,4.15
2019-01-17T09:43:19.328Z,4.05
2019-01-17T09:45:48.872Z,4.90
2019-01-17T09:48:21.007Z,5.45
2019-01-17T09:50:50.474Z,4.05
2019-01-17T09:53:20.040Z,4.70
2019-01-17T09:55:49.475Z,4.28
2019-01-17T09:58:18.901Z,3.95
2019-01-17T10:00:49.663Z,5.17
2019-01-17T10:03:19.215Z,5.10
2019-01-17T10:05:51.170Z,4.97
2019-01-17T10:08:23.529Z,5.80
2019-01-17T10:10:52.990Z,5.72
2019-01-17T10:13:22.527Z,5.78
2019-01-17T10:16:24.262Z,5.55
2019-01-17T10:19:41.377Z,5.40
2019-01-17T10:23:03.364Z,7.20
2019-01-17T10:26:08.197Z,4.10
2019-01-17T10:29:22.442Z,5.30
2019-01-17T10:32:28.302Z,5.70
2019-01-17T10:35:33.924Z,6.17
2019-01-17T10:38:39.221Z,5.42
2019-01-17T10:41:42.381Z,6.65
2019-01-17T10:44:43.423Z,4.75
2019-01-17T10:48:05.519Z,8.75
2019-01-17T10:51:26.544Z,6.65
2019-01-17T10:54:25.476Z,6.00
2019-01-17T10:57:13.589Z,5.15
2019-01-17T11:00:23.642Z,7.62
2019-01-17T11:03:24.419Z,6.92
2019-01-17T11:06:41.622Z,6.25
2019-01-17T11:09:49.858Z,6.87
2019-01-17T11:12:52.401Z,6.45
2019-01-17T11:15:57.052Z,4.58
2019-01-17T11:19:12.771Z,6.90
2019-01-17T11:22:09.242Z,4.22
2019-01-17T11:25:21.429Z,6.35
2019-01-17T11:28:30.563Z,3.83
2019-01-17T11:31:40.822Z,2.20
2019-01-17T11:34:57.745Z,1.85
2019-01-17T11:38:17.244Z,3.02
2019-01-17T11:41:30.902Z,1.47
2019-01-17T11:44:31.593Z,2.15
2019-01-17T11:47:34.535Z,1.17
2019-01-17T11:50:40.601Z,1.62
2019-01-17T11:53:32.278Z,3.55
2019-01-17T11:56:31.914Z,1.22
2019-01-17T11:59:54.534Z,1.45
2019-01-17T12:02:47.175Z,3.25
2019-01-17T12:05:16.817Z,2.00
2019-01-17T12:07:46.247Z,2.50
2019-01-17T12:10:15.596Z,2.50
2019-01-17T12:12:45.167Z,2.87
2019-01-17T12:15:14.693Z,3.83
2019-01-17T12:17:44.091Z,2.10
2019-01-17T12:20:13.559Z,3.30
2019-01-17T12:22:43.224Z,1.92
2019-01-17T12:25:12.569Z,3.37
2019-01-17T12:27:42.714Z,2.00
2019-01-17T12:30:14.431Z,2.55
2019-01-17T12:32:44.093Z,2.72
2019-01-17T12:35:15.600Z,2.77
2019-01-17T12:37:44.990Z,1.90
2019-01-17T12:40:15.360Z,2.40
2019-01-17T12:42:44.836Z,2.30
2019-01-17T12:45:14.279Z,2.85
2019-01-17T12:47:43.699Z,3.58
2019-01-17T12:50:19.271Z,4.37
2019-01-17T12:52:48.716Z,3.67
2019-01-17T12:55:18.093Z,4.37
2019-01-17T12:57:47.600Z,5.08
2019-01-17T13:00:19.507Z,4.08
2019-01-17T13:02:48.895Z,3.50
2019-01-17T13:05:18.317Z,6.10
2019-01-17T13:07:47.773Z,4.92
2019-01-17T13:10:17.264Z,3.08
2019-01-17T13:12:46.933Z,4.15
2019-01-17T13:15:19.530Z,3.27
2019-01-17T13:17:48.982Z,2.72
2019-01-17T13:20:18.829Z,4.50
2019-01-17T13:22:48.183Z,2.77
2019-01-17T13:25:19.924Z,4.25
2019-01-17T13:27:49.369Z,2.95
2019-01-17T13:30:23.145Z,3.83
2019-01-17T13:32:52.775Z,2.10
2019-01-17T13:35:22.245Z,1.98
2019-01-17T13:37:51.682Z,3.50
2019-01-17T13:40:22.920Z,1.30
2019-01-17T13:42:52.477Z,1.00
2019-01-17T13:45:22.350Z,1.20
2019-01-17T13:47:51.825Z,1.10
2019-01-17T13:50:21.243Z,1.30
2019-01-17T13:52:50.751Z,1.40
2019-01-17T13:55:20.099Z,2.17
2019-01-17T13:57:49.498Z,1.32
2019-01-17T14:00:23.068Z,1.05
2019-01-17T14:02:52.485Z,2.30
2019-01-17T14:05:24.849Z,1.37
2019-01-17T14:07:54.510Z,2.00
2019-01-17T14:10:23.867Z,1.67
2019-01-17T14:12:56.326Z,1.60
2019-01-17T14:15:28.244Z,2.25
2019-01-17T14:18:00.830Z,1.92
2019-01-17T14:20:30.278Z,0.93
2019-01-17T14:22:59.691Z,1.40
2019-01-17T14:25:32.545Z,1.80
2019-01-17T14:28:01.954Z,1.20
2019-01-17T14:30:35.316Z,2.98
2019-01-17T14:33:04.715Z,1.60
2019-01-17T14:35:35.998Z,1.40
2019-01-17T14:38:05.520Z,1.10
2019-01-17T14:40:36.137Z,1.10
2019-01-17T14:43:05.544Z,1.57
2019-01-17T14:45:43.084Z,2.00
2019-01-17T14:48:14.225Z,1.70
2019-01-17T14:50:43.520Z,1.87
2019-01-17T14:53:12.957Z,0.98
2019-01-17T14:55:44.152Z,1.07
2019-01-17T14:58:14.024Z,0.93
2019-01-17T15:00:43.506Z,1.55
2019-01-17T15:03:13.034Z,1.05
2019-01-17T15:05:42.611Z,1.57
2019-01-17T15:08:12.129Z,1.77
2019-01-17T15:10:42.184Z,1.10
2019-01-17T15:13:11.704Z,1.25
2019-01-17T15:15:43.068Z,1.15
2019-01-17T15:18:12.713Z,3.35
2019-01-17T15:20:42.383Z,1.62
2019-01-17T15:23:13.801Z,2.00
2019-01-17T15:25:43.270Z,1.80
2019-01-17T15:28:12.679Z,1.70
2019-01-17T15:30:42.272Z,0.88
2019-01-17T15:33:11.902Z,1.47
2019-01-17T15:35:41.316Z,1.05
2019-01-17T15:38:10.716Z,1.98
2019-01-17T15:40:40.086Z,1.47
2019-01-17T15:43:09.517Z,1.85
2019-01-17T15:45:41.727Z,3.12
2019-01-17T15:48:11.138Z,1.45
2019-01-17T15:50:41.396Z,1.37
2019-01-17T15:53:13.128Z,1.72
2019-01-17T15:55:42.726Z,0.90
2019-01-17T15:58:12.187Z,1.47
2019-01-17T16:00:44.722Z,0.98
2019-01-17T16:03:14.215Z,1.85
2019-01-17T16:05:43.644Z,1.50
2019-01-17T16:08:13.112Z,0.85
2019-01-17T16:10:42.586Z,1.05
2019-01-17T16:13:12.016Z,0.70
2019-01-17T16:15:42.239Z,1.47
2019-01-17T16:18:11.621Z,1.35
2019-01-17T16:20:41.049Z,2.08
2019-01-17T16:23:10.526Z,1.60
2019-01-17T16:25:40.215Z,1.22
2019-01-17T16:28:09.572Z,1.20
2019-01-17T16:30:39.004Z,1.70
2019-01-17T16:33:08.464Z,2.52
2019-01-17T16:35:40.996Z,1.22
2019-01-17T16:38:10.399Z,2.20
2019-01-17T16:40:39.765Z,1.47
2019-01-17T16:43:09.199Z,1.92
2019-01-17T16:45:38.576Z,2.75
2019-01-17T16:48:08.043Z,2.65
2019-01-17T16:50:37.490Z,1.15
2019-01-17T16:53:07.012Z,2.95
2019-01-17T16:55:36.721Z,1.62
2019-01-17T16:58:07.388Z,1.47
2019-01-17T17:00:40.070Z,1.45
2019-01-17T17:03:09.516Z,1.77
2019-01-17T17:05:38.935Z,1.32
2019-01-17T17:08:08.570Z,1.30
2019-01-17T17:10:38.028Z,1.15
2019-01-17T17:13:07.482Z,1.52
2019-01-17T17:15:36.869Z,1.87
2019-01-17T17:18:06.362Z,3.50
2019-01-17T17:20:35.760Z,2.45
2019-01-17T17:23:05.241Z,2.90
2019-01-17T17:25:34.680Z,3.37
2019-01-17T17:28:04.490Z,4.35
2019-01-17T17:30:33.901Z,2.35
2019-01-17T17:33:03.585Z,2.42
2019-01-17T17:35:33.000Z,4.05
2019-01-17T17:38:02.427Z,3.27
2019-01-17T17:40:32.274Z,2.17
2019-01-17T17:43:01.646Z,3.15
2019-01-17T17:45:31.477Z,2.72
2019-01-17T17:48:02.272Z,5.58
2019-01-17T17:50:32.283Z,3.52
2019-01-17T17:53:01.907Z,3.95
2019-01-17T17:55:31.393Z,1.95
2019-01-17T17:58:02.232Z,2.27
2019-01-17T18:00:51.482Z,2.58
2019-01-17T18:03:20.929Z,1.80
2019-01-17T18:05:50.333Z,3.15
2019-01-17T18:08:19.716Z,3.98
2019-01-17T18:10:49.387Z,4.50
2019-01-17T18:13:18.815Z,2.75
2019-01-17T18:15:48.360Z,2.15
2019-01-17T18:18:17.900Z,3.12
2019-01-17T18:20:47.296Z,2.55
2019-01-17T18:23:16.793Z,3.47
2019-01-17T18:25:46.796Z,2.77
2019-01-17T18:28:16.284Z,2.55
2019-01-17T18:30:45.880Z,2.27
2019-01-17T18:33:15.350Z,2.08
2019-01-17T18:35:44.804Z,1.92
2019-01-17T18:38:14.228Z,1.62
2019-01-17T18:40:43.816Z,3.62
2019-01-17T18:43:13.304Z,2.55
2019-01-17T18:45:42.680Z,1.10
2019-01-17T18:48:12.116Z,3.15
2019-01-17T18:50:41.780Z,2.90
2019-01-17T18:53:11.377Z,2.47
2019-01-17T18:55:43.092Z,3.25
2019-01-17T18:58:15.622Z,2.92
2019-01-17T19:00:43.758Z,0.93
2019-01-17T19:03:13.154Z,3.77
2019-01-17T19:05:42.604Z,3.20
2019-01-17T19:08:13.161Z,2.60
2019-01-17T19:10:42.667Z,2.37
2019-01-17T19:13:12.163Z,1.07
2019-01-17T19:15:41.813Z,2.25
2019-01-17T19:18:11.225Z,4.95
2019-01-17T19:20:40.646Z,2.40
2019-01-17T19:23:10.208Z,1.67
2019-01-17T19:25:39.712Z,1.37
2019-01-17T19:28:09.333Z,2.65
2019-01-17T19:30:38.816Z,1.30
2019-01-17T19:33:08.662Z,1.90
2019-01-17T19:35:38.127Z,3.40
2019-01-17T19:38:07.637Z,5.28
2019-01-17T19:40:37.129Z,1.82
2019-01-17T19:43:06.652Z,3.05
2019-01-17T19:45:36.163Z,2.33
2019-01-17T19:48:05.690Z,2.87
2019-01-17T19:50:44.864Z,3.90
2019-01-17T19:53:14.251Z,1.37
2019-01-17T19:55:44.017Z,1.98
2019-01-17T19:58:13.526Z,1.05
2019-01-17T20:00:44.284Z,2.67
2019-01-17T20:03:13.854Z,3.02
2019-01-17T20:05:43.298Z,1.22
2019-01-17T20:08:12.710Z,2.50
2019-01-17T20:10:42.345Z,1.20
2019-01-17T20:13:11.767Z,1.90
2019-01-17T20:15:41.220Z,3.75
2019-01-17T20:18:10.591Z,2.37
2019-01-17T20:20:40.302Z,3.70
2019-01-17T20:23:09.763Z,3.17
2019-01-17T20:25:39.273Z,2.90
2019-01-17T20:28:08.874Z,1.42
2019-01-17T20:30:38.356Z,1.45
2019-01-17T20:33:08.764Z,1.80
2019-01-17T20:35:38.324Z,2.45
2019-01-17T20:38:08.051Z,1.72
2019-01-17T20:40:37.538Z,2.08
2019-01-17T20:43:07.371Z,3.60
2019-01-17T20:45:36.846Z,2.50
2019-01-17T20:48:06.567Z,2.40
2019-01-17T20:50:36.117Z,2.15
2019-01-17T20:53:06.084Z,3.35
2019-01-17T20:55:35.507Z,1.98
2019-01-17T20:58:05.337Z,2.02
2019-01-17T21:01:05.438Z,1.65
2019-01-17T21:03:35.315Z,3.20
2019-01-17T21:06:05.086Z,2.77
2019-01-17T21:08:34.464Z,2.65
2019-01-17T21:11:03.889Z,2.72
2019-01-17T21:13:33.347Z,2.75
2019-01-17T21:16:03.010Z,1.67
2019-01-17T21:18:32.434Z,4.00
2019-01-17T21:21:01.853Z,2.62
2019-01-17T21:23:31.265Z,4.33
2019-01-17T21:26:00.985Z,3.65
2019-01-17T21:28:30.461Z,3.37
2019-01-17T21:31:00.114Z,1.75
2019-01-17T21:33:29.567Z,2.05
2019-01-17T21:36:01.284Z,2.52
2019-01-17T21:38:31.062Z,4.50
2019-01-17T21:41:00.604Z,4.00
2019-01-17T21:43:32.972Z,2.60
2019-01-17T21:46:02.508Z,3.95
2019-01-17T21:48:31.966Z,3.22
2019-01-17T21:51:01.596Z,2.77
2019-01-17T21:53:31.087Z,3.45
2019-01-17T21:56:00.559Z,3.02
2019-01-17T21:58:29.964Z,2.75
2019-01-17T22:00:59.425Z,3.58
2019-01-17T22:03:28.986Z,5.22
2019-01-17T22:05:58.624Z,2.67
2019-01-17T22:08:28.153Z,3.17
2019-01-17T22:10:57.697Z,2.87
2019-01-17T22:13:27.143Z,2.27
2019-01-17T22:15:56.537Z,2.17
2019-01-17T22:18:26.148Z,2.85
2019-01-17T22:20:55.668Z,1.57
2019-01-17T22:23:25.099Z,2.52
2019-01-17T22:25:54.610Z,1.98
2019-01-17T22:28:25.184Z,3.30
2019-01-17T22:30:54.603Z,1.65
2019-01-17T22:33:24.005Z,2.75
2019-01-17T22:35:53.372Z,1.95
2019-01-17T22:38:22.911Z,1.10
2019-01-17T22:40:52.548Z,2.55
2019-01-17T22:43:22.147Z,2.42
2019-01-17T22:45:51.545Z,3.40
2019-01-17T22:48:21.032Z,2.83
2019-01-17T22:50:50.443Z,3.17
2019-01-17T22:53:19.997Z,2.37
2019-01-17T22:55:49.460Z,2.47
2019-01-17T22:58:18.875Z,2.52
2019-01-17T23:00:59.893Z,2.37
2019-01-17T23:03:40.816Z,2.87
2019-01-17T23:06:10.551Z,2.42
2019-01-17T23:08:40.019Z,7.22
2019-01-17T23:11:09.480Z,5.25
2019-01-17T23:13:38.939Z,3.40
2019-01-17T23:16:08.909Z,2.10
2019-01-17T23:18:38.600Z,2.67
2019-01-17T23:21:07.951Z,4.37
2019-01-17T23:23:38.441Z,1.22
2019-01-17T23:26:07.886Z,2.65
2019-01-17T23:28:37.952Z,1.72
2019-01-17T23:31:07.501Z,1.82
2019-01-17T23:33:37.037Z,2.60
2019-01-17T23:36:06.416Z,1.15
2019-01-17T23:38:35.942Z,1.62
2019-01-17T23:41:05.565Z,3.25
2019-01-17T23:43:35.047Z,1.87
2019-01-17T23:46:04.450Z,2.67
2019-01-17T23:48:34.186Z,3.77
2019-01-17T23:51:03.638Z,2.72
2019-01-17T23:53:33.178Z,3.17
2019-01-17T23:56:02.915Z,0.60
2019-01-17T23:58:32.333Z,0.62
